Time;durP1;ratioP1;P1;durP2;ratioP2;P2;SDS_P1;SDS_P2;PMS_P1;PMS_P2;Temp;Humidity;BMP_temperature;BMP_pressure;BME280_temperature;BME280_humidity;BME280_pressure;Samples;Min_cycle;Max_cycle;Signal;HPM_P1;HPM_P2
2024/01/24 00:03:05;;;;;;;89.82;83.00;;;5.20;82.00;;;;;;12558944;28;20025;-75
2024/01/24 00:09:07;;;;;;;62.08;56.13;;;5.20;81.90;;;;;;12558595;28;20036;-75
2024/01/24 00:15:09;;;;;;;72.50;66.95;;;4.90;82.00;;;;;;12558306;28;20032;-75
2024/01/24 00:21:10;;;;;;;94.38;87.35;;;5.00;82.20;;;;;;12524347;28;20041;-75
2024/01/24 00:27:12;;;;;;;77.07;70.82;;;5.00;81.90;;;;;;12557803;28;20033;-75
2024/01/24 00:33:15;;;;;;;46.85;42.17;;;5.00;82.00;;;;;;12539837;28;20041;-75
2024/01/24 00:39:17;;;;;;;38.70;34.47;;;5.20;81.80;;;;;;12556850;28;20036;-75
2024/01/24 00:45:19;;;;;;;38.65;34.53;;;5.40;81.60;;;;;;12538839;28;20457;-75
2024/01/24 00:51:21;;;;;;;50.70;46.08;;;5.30;81.50;;;;;;12538705;28;20041;-75
2024/01/24 00:57:23;;;;;;;43.90;39.40;;;5.10;81.50;;;;;;12538446;28;20040;-75
2024/01/24 01:03:24;;;;;;;41.50;37.65;;;5.00;82.00;;;;;;12538482;28;20028;-75
2024/01/24 01:09:26;;;;;;;55.30;49.63;;;5.00;81.80;;;;;;12538154;28;20355;-75
2024/01/24 01:15:27;;;;;;;35.28;31.90;;;4.90;82.10;;;;;;12521499;28;20033;-75
2024/01/24 01:21:29;;;;;;;56.83;51.58;;;5.10;81.90;;;;;;12555403;28;20033;-75
2024/01/24 01:27:31;;;;;;;48.08;37.58;;;4.80;82.00;;;;;;12537248;28;20044;-75
2024/01/24 01:33:32;;;;;;;46.92;40.40;;;4.90;82.30;;;;;;12554867;28;20029;-75
2024/01/24 01:39:34;;;;;;;43.40;39.33;;;4.90;81.90;;;;;;12536719;28;20041;-75
2024/01/24 01:45:36;;;;;;;44.97;40.83;;;4.50;82.10;;;;;;12537555;28;20051;-75
2024/01/24 01:51:37;;;;;;;35.75;32.00;;;4.50;82.40;;;;;;12554702;28;20029;-75
2024/01/24 01:57:51;;;;;;;56.20;50.80;;;4.30;82.30;;;;;;12554380;28;20036;-75
2024/01/24 02:03:53;;;;;;;55.72;50.63;;;4.60;82.70;;;;;;12536215;28;20443;-75
2024/01/24 02:09:55;;;;;;;53.88;45.22;;;4.70;82.50;;;;;;12536001;28;20036;-75
2024/01/24 02:15:57;;;;;;;49.67;42.78;;;4.80;82.30;;;;;;12553794;28;20040;-75
2024/01/24 02:21:59;;;;;;;34.88;31.10;;;4.90;82.00;;;;;;12536984;28;20036;-75
2024/01/24 02:28:00;;;;;;;43.20;39.10;;;4.90;81.70;;;;;;12553409;28;20032;-75
2024/01/24 02:34:02;;;;;;;56.65;52.00;;;4.70;82.10;;;;;;12553235;28;20029;-75
2024/01/24 02:40:05;;;;;;;39.00;35.15;;;4.80;82.10;;;;;;12553078;28;20439;-75
2024/01/24 02:46:06;;;;;;;40.25;36.60;;;4.90;81.80;;;;;;12552968;28;20040;-75
2024/01/24 02:52:08;;;;;;;43.83;39.08;;;4.70;81.80;;;;;;12535177;28;20032;-75
2024/01/24 02:58:09;;;;;;;53.17;47.88;;;4.70;81.90;;;;;;12552711;28;20045;-75
2024/01/24 03:04:11;;;;;;;41.83;37.65;;;4.80;81.70;;;;;;12537001;28;20029;-75
2024/01/24 03:10:13;;;;;;;60.30;55.17;;;4.80;81.50;;;;;;12561398;28;20328;-75
2024/01/24 03:16:14;;;;;;;50.22;45.15;;;4.70;81.70;;;;;;12543520;28;20036;-75
2024/01/24 03:22:16;;;;;;;39.03;33.15;;;4.70;81.80;;;;;;12560853;28;20336;-75
2024/01/24 03:28:17;;;;;;;47.00;42.70;;;4.90;81.90;;;;;;12526323;28;20036;-75
2024/01/24 03:34:19;;;;;;;53.55;48.47;;;5.00;81.80;;;;;;12542661;28;20039;-75
2024/01/24 03:40:20;;;;;;;48.95;44.65;;;5.20;81.40;;;;;;12559983;28;20024;-75
2024/01/24 03:46:22;;;;;;;54.35;49.50;;;5.40;81.50;;;;;;12542118;28;20041;-74
2024/01/24 03:52:23;;;;;;;65.30;60.20;;;5.40;81.00;;;;;;12559488;28;20025;-74
2024/01/24 03:58:25;;;;;;;43.03;38.53;;;5.40;80.70;;;;;;12559107;28;20028;-74
2024/01/24 04:04:27;;;;;;;52.25;47.63;;;5.20;80.70;;;;;;12541179;28;20033;-74
2024/01/24 04:10:28;;;;;;;49.03;40.03;;;4.90;80.90;;;;;;12559224;28;20032;-74
2024/01/24 04:16:30;;;;;;;41.55;37.85;;;4.90;81.10;;;;;;12558311;28;20029;-74
2024/01/24 04:22:32;;;;;;;42.95;37.50;;;4.70;81.00;;;;;;12559296;28;20025;-74
2024/01/24 04:28:33;;;;;;;47.97;43.67;;;4.70;81.50;;;;;;12539991;28;20439;-74
2024/01/24 04:34:35;;;;;;;39.40;35.78;;;4.90;81.80;;;;;;12539744;28;20455;-74
2024/01/24 04:40:37;;;;;;;46.92;42.22;;;5.00;81.40;;;;;;12557072;28;20037;-74
2024/01/24 04:46:38;;;;;;;51.67;44.17;;;4.80;81.80;;;;;;12539255;28;20256;-74
2024/01/24 04:52:40;;;;;;;42.53;38.20;;;4.80;81.80;;;;;;12556626;28;20025;-74
2024/01/24 04:58:41;;;;;;;59.75;53.80;;;5.10;81.70;;;;;;12557015;28;20434;-74
2024/01/24 05:04:43;;;;;;;84.30;77.63;;;5.30;81.30;;;;;;12556037;28;20033;-74
2024/01/24 05:10:45;;;;;;;56.33;51.30;;;5.40;80.90;;;;;;12555671;28;20470;-74
2024/01/24 05:16:51;;;;;;;77.80;72.05;;;5.50;80.50;;;;;;12556230;28;20025;-74
2024/01/24 05:22:53;;;;;;;52.40;47.47;;;5.60;80.20;;;;;;12555301;28;20025;-74
2024/01/24 05:28:55;;;;;;;52.65;47.28;;;5.30;80.10;;;;;;12536924;28;20025;-74
2024/01/24 05:34:56;;;;;;;49.55;45.05;;;5.40;80.50;;;;;;12537096;28;20029;-74
2024/01/24 05:41:22;;;;;;;56.13;51.28;;;5.60;80.00;;;;;;12554495;28;20036;-74
2024/01/24 05:47:24;;;;;;;44.15;39.95;;;5.70;79.60;;;;;;12554345;28;20024;-74
2024/01/24 05:53:26;;;;;;;47.42;43.15;;;5.80;79.70;;;;;;12536579;28;20033;-74
2024/01/24 05:59:29;;;;;;;47.72;43.33;;;5.70;79.50;;;;;;12536271;28;20431;-74
2024/01/24 06:05:31;;;;;;;48.50;44.15;;;5.30;79.30;;;;;;12541451;22;20033;-74
2024/01/24 06:11:33;;;;;;;49.22;44.85;;;5.30;80.50;;;;;;12536118;28;20057;-74
2024/01/24 06:17:35;;;;;;;53.17;48.70;;;5.20;80.30;;;;;;12553448;28;20328;-74
2024/01/24 06:23:37;;;;;;;55.40;49.95;;;5.10;80.60;;;;;;12535738;28;20033;-74
2024/01/24 06:29:39;;;;;;;59.70;54.72;;;5.20;80.60;;;;;;12536325;28;20045;-74
2024/01/24 06:35:41;;;;;;;54.83;50.35;;;5.40;80.90;;;;;;12553157;28;20043;-74
2024/01/24 06:41:44;;;;;;;61.53;56.53;;;5.70;81.40;;;;;;12544836;28;20036;-74
2024/01/24 06:47:46;;;;;;;53.17;48.42;;;5.80;81.20;;;;;;12562381;28;20040;-74
2024/01/24 06:53:48;;;;;;;53.42;48.75;;;6.10;81.50;;;;;;12562415;28;20029;-74
2024/01/24 06:59:50;;;;;;;45.83;41.47;;;6.10;80.60;;;;;;12543244;28;20350;-74
2024/01/24 07:05:52;;;;;;;55.28;50.53;;;6.00;80.30;;;;;;12562361;28;20347;-74
2024/01/24 07:11:54;;;;;;;57.03;52.58;;;5.50;80.20;;;;;;12560964;28;20037;-74
2024/01/24 07:17:56;;;;;;;59.95;55.30;;;5.70;80.70;;;;;;12560738;28;20028;-74
2024/01/24 07:23:58;;;;;;;58.85;46.45;;;5.50;80.40;;;;;;12560776;28;20029;-74
2024/01/24 07:30:00;;;;;;;63.60;57.35;;;5.30;80.80;;;;;;12560411;28;20036;-74
2024/01/24 07:36:02;;;;;;;53.75;48.63;;;5.40;80.70;;;;;;12542987;28;20037;-74
2024/01/24 07:42:04;;;;;;;62.92;57.22;;;5.70;80.10;;;;;;12559582;28;20029;-75
2024/01/24 07:48:07;;;;;;;52.60;47.28;;;5.90;80.40;;;;;;12560294;28;20350;-74
2024/01/24 07:54:09;;;;;;;56.50;50.88;;;6.20;80.30;;;;;;12541307;28;20339;-75
2024/01/24 08:00:16;;;;;;;47.08;42.63;;;6.40;79.90;;;;;;12529443;28;20049;-74
2024/01/24 08:06:17;;;;;;;74.20;67.65;;;6.40;80.00;;;;;;12559869;28;20033;-75
2024/01/24 08:12:19;;;;;;;69.95;63.38;;;6.50;80.10;;;;;;12499962;28;20056;-75
2024/01/24 08:18:21;;;;;;;75.40;69.85;;;6.60;80.00;;;;;;12508706;28;20040;-74
2024/01/24 08:24:23;;;;;;;63.55;58.15;;;6.50;79.60;;;;;;12508470;28;20064;-75
2024/01/24 08:30:25;;;;;;;69.40;62.75;;;6.20;80.20;;;;;;12507524;28;20347;-75
2024/01/24 08:36:26;;;;;;;58.95;53.05;;;5.80;80.30;;;;;;12507981;28;20033;-75
2024/01/24 08:42:29;;;;;;;66.18;60.13;;;6.10;81.30;;;;;;12548219;28;20335;-75
2024/01/24 08:48:30;;;;;;;88.22;80.72;;;6.20;81.20;;;;;;12556991;28;20033;-75
2024/01/24 08:54:32;;;;;;;58.70;52.55;;;6.30;81.10;;;;;;12556976;28;20339;-75
2024/01/24 09:00:34;;;;;;;70.07;63.42;;;6.60;81.40;;;;;;12538947;28;20052;-75
2024/01/24 09:06:36;;;;;;;55.88;50.83;;;6.70;81.10;;;;;;12538050;28;20033;-75
2024/01/24 09:12:38;;;;;;;65.60;60.75;;;6.70;81.40;;;;;;12556105;28;20041;-75
2024/01/24 09:18:40;;;;;;;64.38;59.13;;;6.60;81.90;;;;;;12538419;28;20043;-75
2024/01/24 09:24:41;;;;;;;45.80;41.47;;;6.70;82.30;;;;;;12555564;28;20033;-75
2024/01/24 09:30:43;;;;;;;57.22;52.10;;;6.90;82.60;;;;;;12556111;28;20131;-75
2024/01/24 09:36:45;;;;;;;41.97;38.05;;;7.00;82.60;;;;;;12563729;28;20044;-75
2024/01/24 09:42:47;;;;;;;60.25;55.67;;;7.00;82.80;;;;;;12537438;28;20045;-75
2024/01/24 09:48:49;;;;;;;65.75;61.03;;;7.20;83.00;;;;;;12554871;28;20032;-75
2024/01/24 09:54:57;;;;;;;57.47;53.40;;;7.20;83.20;;;;;;12554646;28;20346;-75
2024/01/24 10:01:02;;;;;;;62.88;57.78;;;7.30;83.60;;;;;;12554492;28;20457;-75
2024/01/24 10:07:08;;;;;;;77.28;72.53;;;7.50;84.00;;;;;;12553993;28;20040;-75
2024/01/24 10:13:10;;;;;;;60.28;56.17;;;7.70;84.00;;;;;;12557162;28;20033;-75
2024/01/24 10:19:12;;;;;;;63.13;58.90;;;7.80;83.90;;;;;;12547245;28;20042;-75
2024/01/24 10:25:16;;;;;;;66.95;62.70;;;7.80;84.30;;;;;;12563997;28;20025;-75
2024/01/24 10:31:19;;;;;;;60.72;55.65;;;7.90;84.30;;;;;;12545993;28;20447;-75
2024/01/24 10:37:21;;;;;;;77.13;72.22;;;8.00;84.40;;;;;;12563391;28;20033;-75
2024/01/24 10:43:25;;;;;;;80.72;75.25;;;8.00;84.30;;;;;;12563062;28;20358;-75
2024/01/24 10:49:29;;;;;;;47.90;43.70;;;8.00;84.10;;;;;;12562645;28;20032;-75
2024/01/24 10:55:33;;;;;;;51.65;47.55;;;7.80;83.60;;;;;;12528139;28;20068;-75
2024/01/24 11:01:35;;;;;;;68.85;63.67;;;7.60;83.60;;;;;;12562188;28;20461;-75
2024/01/24 11:07:47;;;;;;;89.57;82.43;;;7.60;84.10;;;;;;12562050;28;20037;-75
2024/01/24 11:13:51;;;;;;;64.97;60.25;;;7.70;84.00;;;;;;12536524;28;20033;-75
2024/01/24 11:19:55;;;;;;;53.03;49.03;;;7.70;83.80;;;;;;12511837;28;20041;-75
2024/01/24 11:25:56;;;;;;;62.17;57.00;;;7.80;83.90;;;;;;12510517;28;20029;-75
2024/01/24 11:31:58;;;;;;;89.05;82.88;;;8.10;83.60;;;;;;12511130;28;20359;-75
2024/01/24 11:38:22;;;;;;;80.57;74.50;;;8.20;84.00;;;;;;12511179;28;20048;-76
2024/01/24 11:44:26;;;;;;;116.72;110.05;;;8.50;84.00;;;;;;12359899;28;20482;-75
2024/01/24 11:50:28;;;;;;;124.82;117.75;;;9.00;84.30;;;;;;12359415;28;20038;-75
2024/01/24 11:56:29;;;;;;;40.83;36.92;;;9.30;83.70;;;;;;12359108;28;20051;-75
2024/01/24 12:02:31;;;;;;;43.17;37.63;;;9.70;83.70;;;;;;12370693;28;20384;-76
2024/01/24 12:08:32;;;;;;;100.20;94.25;;;9.60;83.40;;;;;;12391941;28;20046;-75
2024/01/24 12:15:11;;;;;;;145.73;138.52;;;9.60;83.80;;;;;;12391733;28;20364;-75
2024/01/24 12:21:13;;;;;;;139.27;132.30;;;9.60;83.60;;;;;;12483713;28;20048;-75
2024/01/24 12:27:14;;;;;;;148.32;141.15;;;9.50;83.70;;;;;;12508680;28;20032;-76
2024/01/24 12:33:17;;;;;;;129.57;122.43;;;9.70;84.10;;;;;;12508340;28;20040;-76
2024/01/24 12:39:26;;;;;;;109.30;102.93;;;9.60;84.00;;;;;;12490252;28;20041;-75
2024/01/24 12:45:27;;;;;;;134.57;128.23;;;9.80;83.70;;;;;;12508831;28;20040;-75
2024/01/24 12:51:29;;;;;;;141.40;134.77;;;9.80;83.50;;;;;;12507839;28;20044;-76
2024/01/24 12:57:31;;;;;;;122.63;116.45;;;9.80;83.50;;;;;;12507252;28;20041;-75
2024/01/24 13:03:33;;;;;;;120.55;114.70;;;9.80;83.60;;;;;;12507337;28;20344;-75
2024/01/24 13:09:35;;;;;;;117.82;112.07;;;9.80;83.40;;;;;;12507284;28;20038;-75
2024/01/24 13:15:40;;;;;;;93.57;88.88;;;9.70;83.50;;;;;;12507071;28;20439;-75
2024/01/24 13:21:43;;;;;;;116.35;110.47;;;9.80;83.40;;;;;;12506698;28;20351;-75
2024/01/24 13:27:46;;;;;;;113.90;108.20;;;9.80;83.50;;;;;;12472985;28;20045;-75
2024/01/24 13:33:49;;;;;;;104.38;98.93;;;10.00;83.50;;;;;;12489925;28;20048;-76
2024/01/24 13:39:51;;;;;;;101.18;95.88;;;10.30;83.40;;;;;;12506465;28;20459;-76
2024/01/24 13:45:53;;;;;;;56.40;52.50;;;10.40;83.40;;;;;;12536336;28;20036;-76
2024/01/24 13:51:54;;;;;;;66.35;62.30;;;10.60;83.10;;;;;;12537638;28;20486;-76
2024/01/24 13:57:59;;;;;;;94.95;89.47;;;10.30;83.40;;;;;;12554864;28;20033;-76
2024/01/24 14:04:01;;;;;;;68.50;63.58;;;10.40;83.80;;;;;;12565947;28;20350;-76
2024/01/24 14:10:04;;;;;;;88.30;82.82;;;10.50;83.90;;;;;;12571085;22;20060;-75
2024/01/24 14:16:08;;;;;;;36.55;32.88;;;10.60;84.20;;;;;;12555996;28;20048;-75
2024/01/24 14:22:09;;;;;;;40.00;36.10;;;10.70;83.70;;;;;;12554427;28;20037;-75
2024/01/24 14:28:11;;;;;;;34.35;31.05;;;10.80;83.60;;;;;;12553857;28;20033;-76
2024/01/24 14:34:13;;;;;;;28.63;25.27;;;11.00;83.00;;;;;;12536839;28;20056;-75
2024/01/24 14:40:15;;;;;;;29.65;26.55;;;11.10;83.00;;;;;;12553744;28;20033;-75
2024/01/24 14:46:19;;;;;;;29.20;26.17;;;11.20;83.00;;;;;;12553386;28;20036;-75
2024/01/24 14:52:21;;;;;;;31.92;28.67;;;11.00;83.00;;;;;;12554032;28;20025;-75
2024/01/24 14:58:23;;;;;;;26.20;22.90;;;10.80;83.50;;;;;;12548942;28;20029;-76
2024/01/24 15:04:25;;;;;;;27.67;24.15;;;10.90;83.70;;;;;;12495374;28;20443;-76
2024/01/24 15:10:27;;;;;;;30.45;27.75;;;10.90;83.80;;;;;;12512205;28;20042;-76
2024/01/24 15:16:29;;;;;;;48.47;44.13;;;10.90;83.80;;;;;;12512133;28;20044;-75
2024/01/24 15:22:31;;;;;;;42.40;38.88;;;10.70;83.90;;;;;;12517405;28;20033;-76
2024/01/24 15:28:32;;;;;;;113.90;108.28;;;10.50;84.40;;;;;;12526639;28;20072;-75
2024/01/24 15:34:34;;;;;;;103.50;98.13;;;10.40;84.30;;;;;;12554924;28;20033;-75
2024/01/24 15:40:36;;;;;;;122.75;116.85;;;10.40;84.60;;;;;;12543159;28;20036;-75
2024/01/24 15:46:38;;;;;;;115.13;109.38;;;10.10;84.40;;;;;;12560380;28;20039;-76
2024/01/24 15:52:40;;;;;;;133.25;125.97;;;10.10;85.10;;;;;;12560470;28;20040;-76
2024/01/24 15:58:42;;;;;;;135.32;127.85;;;10.20;84.60;;;;;;12559795;28;20060;-75
2024/01/24 16:04:44;;;;;;;128.88;122.20;;;10.10;84.50;;;;;;12542459;28;20036;-75
2024/01/24 16:10:47;;;;;;;145.30;137.90;;;10.20;84.20;;;;;;12558993;28;20036;-75
2024/01/24 16:16:50;;;;;;;44.05;39.53;;;10.20;84.10;;;;;;12559939;28;20037;-75
2024/01/24 16:22:52;;;;;;;66.22;60.55;;;9.90;84.20;;;;;;12559291;28;20040;-75
2024/01/24 16:28:54;;;;;;;115.45;108.68;;;9.90;83.80;;;;;;12558339;28;20029;-75
2024/01/24 16:34:55;;;;;;;37.90;34.05;;;10.00;83.40;;;;;;12540475;28;20051;-75
2024/01/24 16:40:58;;;;;;;95.80;88.95;;;10.00;83.00;;;;;;12540093;28;20036;-75
2024/01/24 16:47:00;;;;;;;73.22;66.95;;;9.70;83.00;;;;;;12557642;28;20033;-75
2024/01/24 16:53:02;;;;;;;161.45;151.93;;;9.50;83.20;;;;;;12557900;28;20446;-76
2024/01/24 16:59:04;;;;;;;153.57;145.18;;;9.60;83.10;;;;;;12539292;28;20041;-76
2024/01/24 17:05:06;;;;;;;83.68;77.13;;;9.50;82.80;;;;;;12556544;28;20347;-75
2024/01/24 17:11:08;;;;;;;77.05;71.40;;;9.40;82.70;;;;;;12556658;28;20044;-76
2024/01/24 17:17:11;;;;;;;98.63;92.10;;;9.20;82.70;;;;;;12538316;28;20036;-75
2024/01/24 17:23:13;;;;;;;89.07;83.05;;;9.10;82.90;;;;;;12537276;28;20036;-76
2024/01/24 17:29:15;;;;;;;83.50;77.03;;;9.10;83.00;;;;;;12555437;28;20032;-75
2024/01/24 17:35:16;;;;;;;97.15;91.25;;;9.10;82.80;;;;;;12555100;28;20041;-75
2024/01/24 17:41:18;;;;;;;91.00;83.78;;;9.00;82.50;;;;;;12537060;28;20347;-75
2024/01/24 17:47:20;;;;;;;89.32;82.75;;;8.80;82.50;;;;;;12554715;28;20029;-75
2024/01/24 17:53:22;;;;;;;66.10;60.10;;;8.70;82.30;;;;;;12537041;28;20110;-75
2024/01/24 17:59:23;;;;;;;66.47;61.55;;;8.50;82.70;;;;;;12554512;28;20032;-75
2024/01/24 18:05:25;;;;;;;77.40;70.70;;;8.40;82.60;;;;;;12538003;28;20037;-75
2024/01/24 18:11:27;;;;;;;90.72;83.55;;;8.20;82.90;;;;;;12554927;28;20450;-76
2024/01/24 18:17:29;;;;;;;60.47;54.63;;;8.30;82.80;;;;;;12554249;28;20028;-75
2024/01/24 18:23:30;;;;;;;74.88;68.68;;;8.30;82.50;;;;;;12536276;28;20044;-75
2024/01/24 18:29:32;;;;;;;89.95;82.80;;;8.30;82.30;;;;;;12553876;28;20040;-75
2024/01/24 18:35:34;;;;;;;75.65;69.22;;;8.20;82.40;;;;;;12558211;28;20044;-76
2024/01/24 18:41:36;;;;;;;71.07;65.15;;;8.10;82.10;;;;;;12545805;28;20044;-75
2024/01/24 18:47:38;;;;;;;84.63;77.47;;;7.70;82.50;;;;;;12563299;28;20057;-75
2024/01/24 18:53:43;;;;;;;62.83;56.72;;;7.60;83.10;;;;;;12562426;28;20033;-75
2024/01/24 18:59:45;;;;;;;71.78;64.97;;;7.80;83.00;;;;;;12562544;28;20036;-76
2024/01/24 19:05:47;;;;;;;51.03;45.88;;;7.70;82.80;;;;;;12527906;28;20335;-75
2024/01/24 19:11:49;;;;;;;72.57;65.00;;;7.50;82.70;;;;;;12544087;28;20041;-75
2024/01/24 19:17:50;;;;;;;60.17;53.83;;;7.40;83.00;;;;;;12511775;28;20048;-75
2024/01/24 19:23:52;;;;;;;74.15;66.53;;;7.40;83.00;;;;;;12511457;28;20037;-75
2024/01/24 19:29:54;;;;;;;68.65;60.90;;;7.60;83.10;;;;;;12511694;28;20057;-75
2024/01/24 19:35:56;;;;;;;90.18;82.25;;;7.60;82.90;;;;;;12511590;28;20332;-75
2024/01/24 19:41:58;;;;;;;76.60;68.50;;;7.50;83.10;;;;;;12511281;28;20448;-75
2024/01/24 19:47:59;;;;;;;59.05;52.95;;;7.60;83.10;;;;;;12510999;28;20048;-75
2024/01/24 19:54:01;;;;;;;67.65;61.03;;;7.70;82.80;;;;;;12511259;28;20029;-75
2024/01/24 20:00:03;;;;;;;74.53;66.72;;;7.50;82.70;;;;;;12510345;28;20347;-75
2024/01/24 20:06:06;;;;;;;78.05;69.68;;;7.40;82.80;;;;;;12476576;28;20045;-75
2024/01/24 20:12:08;;;;;;;73.03;65.15;;;7.30;82.90;;;;;;12509909;28;20148;-75
2024/01/24 20:18:10;;;;;;;63.38;56.65;;;7.40;82.70;;;;;;12509567;28;20037;-75
2024/01/24 20:24:12;;;;;;;74.00;66.68;;;7.40;83.20;;;;;;12491723;28;20033;-75
2024/01/24 20:30:14;;;;;;;58.83;52.50;;;7.10;83.20;;;;;;12491973;28;20089;-75
2024/01/24 20:36:16;;;;;;;63.47;57.03;;;7.20;83.00;;;;;;12509321;28;20043;-75
2024/01/24 20:42:18;;;;;;;85.45;77.90;;;7.30;82.80;;;;;;12508641;28;20037;-75
2024/01/24 20:48:19;;;;;;;60.15;52.78;;;7.20;82.80;;;;;;12508206;28;20037;-75
2024/01/24 20:54:21;;;;;;;65.30;58.22;;;6.90;82.80;;;;;;12507846;28;20352;-75
2024/01/24 21:00:23;;;;;;;89.53;80.93;;;6.90;83.10;;;;;;12506633;28;20045;-75
2024/01/24 21:06:27;;;;;;;77.15;68.78;;;6.70;83.00;;;;;;12506904;28;20041;-75
2024/01/24 21:12:29;;;;;;;76.07;67.45;;;6.80;83.10;;;;;;12506157;28;20049;-75
2024/01/24 21:18:30;;;;;;;78.90;70.75;;;7.10;82.90;;;;;;12505970;28;20029;-75
2024/01/24 21:24:32;;;;;;;66.57;59.83;;;7.00;82.70;;;;;;12505993;28;20109;-75
2024/01/24 21:30:34;;;;;;;93.57;85.47;;;6.90;82.40;;;;;;12505536;28;20546;-75
2024/01/24 21:36:36;;;;;;;62.92;56.08;;;6.80;82.20;;;;;;12505380;28;20329;-75
2024/01/24 21:42:37;;;;;;;62.45;55.85;;;6.70;82.70;;;;;;12505158;28;20038;-75
2024/01/24 21:48:39;;;;;;;64.47;57.42;;;6.70;82.40;;;;;;12504545;28;20044;-75
2024/01/24 21:54:41;;;;;;;87.60;78.97;;;6.60;82.50;;;;;;12487587;28;20475;-75
2024/01/24 22:00:43;;;;;;;84.15;75.57;;;6.60;82.30;;;;;;12504657;28;20040;-74
2024/01/24 22:06:44;;;;;;;85.90;77.45;;;6.70;82.30;;;;;;12481007;22;20053;-75
2024/01/24 22:12:47;;;;;;;106.38;96.43;;;6.80;82.00;;;;;;12455795;28;20042;-75
2024/01/24 22:18:49;;;;;;;108.10;97.65;;;6.70;82.00;;;;;;12455778;28;20034;-75
2024/01/24 22:24:51;;;;;;;76.50;69.25;;;6.50;82.00;;;;;;12455687;28;20471;-75
2024/01/24 22:30:53;;;;;;;97.35;89.05;;;6.30;82.30;;;;;;12455467;28;20360;-75
2024/01/24 22:36:55;;;;;;;128.05;116.72;;;6.30;82.30;;;;;;12456072;28;20061;-75
2024/01/24 22:42:57;;;;;;;123.65;114.43;;;6.30;82.40;;;;;;12455178;28;20045;-75
2024/01/24 22:48:58;;;;;;;77.30;69.07;;;6.30;82.30;;;;;;12455102;28;20056;-75
2024/01/24 22:55:00;;;;;;;76.55;68.22;;;6.20;82.40;;;;;;12453741;28;20037;-75
2024/01/24 23:01:02;;;;;;;69.97;62.80;;;6.20;82.20;;;;;;12454218;28;20034;-75
2024/01/24 23:07:04;;;;;;;68.88;61.25;;;6.20;82.10;;;;;;12454939;28;20030;-75
2024/01/24 23:13:05;;;;;;;99.40;91.07;;;6.10;82.00;;;;;;12454953;28;20038;-75
2024/01/24 23:19:07;;;;;;;88.05;77.05;;;6.10;82.20;;;;;;12454951;28;20033;-75
2024/01/24 23:25:08;;;;;;;112.72;103.40;;;6.10;82.70;;;;;;12461855;28;20463;-75
2024/01/24 23:31:10;;;;;;;112.30;101.47;;;6.00;82.80;;;;;;12462065;28;20038;-75
2024/01/24 23:37:41;;;;;;;89.60;80.78;;;6.00;82.60;;;;;;12460760;28;20026;-75
2024/01/24 23:43:43;;;;;;;83.65;75.57;;;5.90;82.70;;;;;;12462031;28;20038;-75
2024/01/24 23:49:45;;;;;;;102.40;93.63;;;5.90;82.80;;;;;;12461315;28;20447;-75
2024/01/24 23:55:51;;;;;;;75.32;67.72;;;5.80;82.80;;;;;;12459851;28;20044;-74
